Time;durP1;ratioP1;P1;durP2;ratioP2;P2;SDS_P1;SDS_P2;PMS_P1;PMS_P2;Temp;Humidity;BMP_temperature;BMP_pressure;BME280_temperature;BME280_humidity;BME280_pressure;Samples;Min_cycle;Max_cycle;Signal;HPM_P1;HPM_P2
2022/12/10 00:01:14;;;;;;;14.20;6.10;;;;;;;-0.13;100.00;100362.22;5053114;28;20909;-72
2022/12/10 00:03:41;;;;;;;13.87;7.30;;;;;;;-0.19;100.00;100359.69;5054699;28;20485;-71
2022/12/10 00:06:11;;;;;;;16.67;6.50;;;;;;;-0.20;100.00;100360.75;5053929;28;21073;-72
2022/12/10 00:08:38;;;;;;;16.90;5.83;;;;;;;-0.12;100.00;100358.50;5052612;28;20951;-72
2022/12/10 00:11:07;;;;;;;13.40;5.80;;;;;;;-0.05;100.00;100361.84;5052557;28;20549;-73
2022/12/10 00:13:35;;;;;;;12.87;5.63;;;;;;;-0.07;99.29;100355.94;5049995;28;20550;-72
2022/12/10 00:16:05;;;;;;;14.63;5.50;;;;;;;-0.07;99.59;100357.81;5054136;28;20561;-71
2022/12/10 00:18:31;;;;;;;15.10;5.77;;;;;;;-0.04;99.08;100366.13;5053360;28;20548;-72
2022/12/10 00:20:58;;;;;;;12.60;5.70;;;;;;;-0.09;99.67;100360.72;5035274;28;21000;-73
2022/12/10 00:23:24;;;;;;;14.07;6.43;;;;;;;-0.09;99.01;100370.53;5046534;28;20460;-73
2022/12/10 00:25:51;;;;;;;16.00;6.20;;;;;;;-0.03;98.77;100364.28;5054026;28;20489;-73
2022/12/10 00:28:18;;;;;;;19.00;7.07;;;;;;;-0.09;97.84;100362.53;5053762;28;20537;-72
2022/12/10 00:30:44;;;;;;;13.20;5.50;;;;;;;-0.10;97.71;100371.56;5053882;28;20463;-72
2022/12/10 00:33:12;;;;;;;19.40;7.27;;;;;;;-0.13;97.76;100358.75;5054224;28;20831;-72
2022/12/10 00:35:39;;;;;;;16.80;5.10;;;;;;;-0.06;98.58;100354.91;5053659;28;20456;-73
2022/12/10 00:38:05;;;;;;;16.27;5.73;;;;;;;-0.02;98.73;100360.56;5053443;28;21034;-72
2022/12/10 00:40:33;;;;;;;15.13;5.93;;;;;;;0.04;98.22;100358.81;5053948;28;20545;-72
2022/12/10 00:43:00;;;;;;;14.90;6.00;;;;;;;-0.01;98.49;100362.97;5051208;28;20476;-72
2022/12/10 00:45:27;;;;;;;14.63;6.07;;;;;;;-0.04;98.26;100371.47;5053621;28;20575;-73
2022/12/10 00:47:53;;;;;;;14.30;6.17;;;;;;;-0.04;99.09;100370.66;5053776;28;21034;-72
2022/12/10 00:50:21;;;;;;;13.77;5.90;;;;;;;-0.08;99.78;100374.84;5051273;28;20468;-72
2022/12/10 00:52:48;;;;;;;15.10;6.30;;;;;;;-0.06;99.71;100372.72;5053611;28;20458;-73
2022/12/10 00:55:14;;;;;;;14.80;6.10;;;;;;;-0.07;99.97;100379.91;5051980;28;20561;-73
2022/12/10 00:57:41;;;;;;;15.00;5.90;;;;;;;-0.18;99.96;100370.09;5053725;28;20562;-73
2022/12/10 01:00:09;;;;;;;18.37;6.70;;;;;;;-0.10;99.50;100372.38;5053321;28;21054;-72
2022/12/10 01:02:35;;;;;;;19.63;6.83;;;;;;;-0.13;98.41;100372.88;5053564;28;20462;-73
2022/12/10 01:05:02;;;;;;;12.03;5.63;;;;;;;-0.13;98.75;100372.88;5051483;28;20465;-74
2022/12/10 01:07:30;;;;;;;15.63;6.20;;;;;;;-0.18;99.62;100380.72;5053813;28;20482;-74
2022/12/10 01:09:56;;;;;;;16.67;5.27;;;;;;;-0.18;99.24;100374.59;5053687;28;20458;-73
2022/12/10 01:12:23;;;;;;;16.93;5.67;;;;;;;-0.20;99.34;100376.69;5052837;28;20469;-73
2022/12/10 01:14:49;;;;;;;14.93;5.37;;;;;;;-0.18;99.29;100370.09;5052002;28;20562;-75
2022/12/10 01:17:16;;;;;;;16.20;7.00;;;;;;;-0.18;98.92;100370.09;5053399;28;21014;-72
2022/12/10 01:19:43;;;;;;;11.53;5.03;;;;;;;-0.24;98.73;100379.03;5053160;28;20553;-73
2022/12/10 01:22:09;;;;;;;15.83;5.33;;;;;;;-0.28;99.21;100376.00;5053342;28;20847;-74
2022/12/10 01:24:37;;;;;;;19.40;5.00;;;;;;;-0.23;99.28;100383.28;5052513;28;20485;-73
2022/12/10 01:27:04;;;;;;;12.20;4.70;;;;;;;-0.21;99.10;100375.09;5051612;28;21082;-73
2022/12/10 01:29:31;;;;;;;15.03;5.57;;;;;;;-0.22;99.06;100373.44;5051999;28;20524;-73
2022/12/10 01:31:58;;;;;;;20.23;5.80;;;;;;;-0.31;99.43;100375.66;5053251;28;20498;-73
2022/12/10 01:34:26;;;;;;;14.07;5.30;;;;;;;-0.37;99.52;100374.75;5052640;28;20530;-72
2022/12/10 01:36:54;;;;;;;13.47;4.60;;;;;;;-0.41;99.44;100373.59;5052076;28;20474;-74
2022/12/10 01:39:22;;;;;;;15.03;5.00;;;;;;;-0.51;99.09;100382.19;5052616;28;20546;-72
2022/12/10 01:41:53;;;;;;;11.27;4.27;;;;;;;-0.56;99.60;100375.94;5051718;28;20546;-74
2022/12/10 01:44:57;;;;;;;18.07;6.17;;;;;;;-0.48;99.28;100374.78;5052225;28;20542;-74
2022/12/10 01:47:24;;;;;;;11.60;5.07;;;;;;;-0.56;100.00;100368.78;5053586;28;20581;-73
2022/12/10 01:49:50;;;;;;;10.13;4.37;;;;;;;-0.46;100.00;100378.81;5053302;28;20549;-73
2022/12/10 01:52:17;;;;;;;14.30;5.70;;;;;;;-0.44;100.00;100376.75;5052459;28;20545;-72
2022/12/10 01:54:46;;;;;;;14.97;4.80;;;;;;;-0.42;100.00;100385.28;5045739;28;20494;-72
2022/12/10 01:57:17;;;;;;;18.07;5.37;;;;;;;-0.37;100.00;100382.75;5051823;28;21055;-72
2022/12/10 01:59:45;;;;;;;11.13;4.70;;;;;;;-0.40;100.00;100377.91;5052718;28;20469;-73
2022/12/10 02:02:18;;;;;;;20.60;6.83;;;;;;;-0.58;100.00;100378.81;5053010;28;20547;-72
2022/12/10 02:05:00;;;;;;;14.57;6.43;;;;;;;-0.60;100.00;100380.91;5051279;28;20541;-72
2022/12/10 02:07:31;;;;;;;17.57;5.20;;;;;;;-0.61;100.00;100374.00;5050851;28;20486;-71
2022/12/10 02:10:05;;;;;;;10.83;4.23;;;;;;;-0.60;100.00;100369.47;5050762;28;20544;-72
2022/12/10 02:12:40;;;;;;;16.57;5.63;;;;;;;-0.69;100.00;100362.88;5053495;28;20419;-72
2022/12/10 02:15:13;;;;;;;14.00;5.47;;;;;;;-0.72;100.00;100371.31;5051629;28;20454;-73
2022/12/10 02:17:44;;;;;;;12.63;4.73;;;;;;;-0.71;100.00;100363.09;5052190;28;20564;-72
2022/12/10 02:20:16;;;;;;;11.70;5.00;;;;;;;-0.72;100.00;100352.72;5051456;28;20916;-72
2022/12/10 02:22:47;;;;;;;11.90;4.50;;;;;;;-0.86;100.00;100354.78;5051157;28;20549;-73
2022/12/10 02:25:16;;;;;;;13.57;5.10;;;;;;;-0.87;100.00;100367.28;5051210;28;20541;-72
2022/12/10 02:27:52;;;;;;;9.23;4.37;;;;;;;-0.79;100.00;100360.81;5053289;28;20528;-72
2022/12/10 02:30:20;;;;;;;17.33;6.40;;;;;;;-0.86;100.00;100368.91;5050950;28;20549;-72
2022/12/10 02:32:50;;;;;;;11.80;4.20;;;;;;;-0.90;99.69;100362.41;5051289;28;21077;-72
2022/12/10 02:35:21;;;;;;;21.13;5.80;;;;;;;-1.00;100.00;100356.88;5050938;28;20541;-72
2022/12/10 02:37:51;;;;;;;14.03;6.70;;;;;;;-1.02;99.70;100357.13;5051166;28;20472;-72
2022/12/10 02:40:23;;;;;;;14.07;5.50;;;;;;;-1.02;99.96;100364.25;5052235;28;20490;-71
2022/12/10 02:42:52;;;;;;;11.90;4.67;;;;;;;-1.13;100.00;100362.41;5051837;28;20545;-72
2022/12/10 02:45:22;;;;;;;13.20;6.20;;;;;;;-1.22;100.00;100377.06;5052444;28;20452;-74
2022/12/10 02:47:50;;;;;;;14.43;6.07;;;;;;;-1.15;100.00;100364.47;5051503;28;20484;-73
2022/12/10 02:50:20;;;;;;;13.23;5.00;;;;;;;-1.23;100.00;100368.28;5051810;28;20545;-71
2022/12/10 02:52:47;;;;;;;13.80;5.77;;;;;;;-1.29;100.00;100358.56;5051885;28;20462;-72
2022/12/10 02:55:15;;;;;;;14.63;7.00;;;;;;;-1.29;100.00;100363.88;5052184;28;20468;-72
2022/12/10 02:57:55;;;;;;;14.10;5.83;;;;;;;-1.32;100.00;100365.16;5050779;28;20481;-74
2022/12/10 03:00:25;;;;;;;13.10;6.07;;;;;;;-1.23;100.00;100357.66;5043345;28;20452;-72
2022/12/10 03:03:09;;;;;;;17.60;6.57;;;;;;;-1.19;100.00;100364.16;5051371;28;20952;-72
2022/12/10 03:05:42;;;;;;;12.90;5.57;;;;;;;-1.25;100.00;100367.69;5054967;28;20481;-72
2022/12/10 03:08:15;;;;;;;14.30;7.00;;;;;;;-1.21;100.00;100368.84;5055043;28;20533;-74
2022/12/10 03:10:49;;;;;;;16.73;5.60;;;;;;;-1.15;100.00;100375.94;5055791;28;20526;-72
2022/12/10 03:13:18;;;;;;;13.53;5.27;;;;;;;-1.04;100.00;100371.66;5056475;28;20517;-72
2022/12/10 03:15:48;;;;;;;17.80;6.70;;;;;;;-1.03;100.00;100373.28;5055491;28;20549;-72
2022/12/10 03:18:20;;;;;;;12.97;5.20;;;;;;;-0.96;100.00;100370.53;5055057;28;21023;-73
2022/12/10 03:20:47;;;;;;;14.87;5.20;;;;;;;-0.96;100.00;100373.97;5055723;28;20514;-74
2022/12/10 03:23:17;;;;;;;14.97;6.40;;;;;;;-0.99;100.00;100377.09;5053612;28;20452;-73
2022/12/10 03:25:45;;;;;;;14.20;5.90;;;;;;;-0.88;100.00;100372.84;5051658;28;20459;-73
2022/12/10 03:28:12;;;;;;;13.93;5.00;;;;;;;-0.90;100.00;100375.72;5055430;28;20541;-72
2022/12/10 03:30:41;;;;;;;15.27;6.37;;;;;;;-0.90;100.00;100372.25;5055069;28;20548;-72
2022/12/10 03:33:10;;;;;;;11.07;4.53;;;;;;;-0.93;100.00;100373.53;5055089;28;21019;-73
2022/12/10 03:35:37;;;;;;;20.30;7.10;;;;;;;-1.00;100.00;100375.47;5055109;28;20489;-73
2022/12/10 03:38:04;;;;;;;20.40;7.13;;;;;;;-1.00;100.00;100378.13;5054572;28;20896;-73
2022/12/10 03:40:30;;;;;;;14.10;5.33;;;;;;;-0.98;100.00;100369.94;5054749;28;20465;-73
2022/12/10 03:42:57;;;;;;;13.77;6.00;;;;;;;-0.84;100.00;100372.16;5054721;28;20550;-72
2022/12/10 03:45:23;;;;;;;16.47;6.33;;;;;;;-0.83;100.00;100376.41;5056171;28;20477;-72
2022/12/10 03:47:50;;;;;;;15.47;6.00;;;;;;;-0.90;100.00;100374.91;5054978;28;20525;-73
2022/12/10 03:50:18;;;;;;;14.27;6.83;;;;;;;-0.88;100.00;100378.16;5054379;28;21047;-72
2022/12/10 03:52:45;;;;;;;17.30;7.80;;;;;;;-0.96;100.00;100373.19;5048722;28;20461;-72
2022/12/10 03:55:12;;;;;;;20.63;6.90;;;;;;;-0.87;100.00;100377.13;5053588;28;20991;-73
2022/12/10 03:57:38;;;;;;;14.37;6.23;;;;;;;-0.73;100.00;100377.69;5054008;28;20851;-72
2022/12/10 04:00:07;;;;;;;16.47;6.47;;;;;;;-0.68;100.00;100377.81;5055148;28;20541;-72
2022/12/10 04:02:34;;;;;;;16.27;6.53;;;;;;;-0.64;100.00;100376.28;5055503;28;20431;-72
2022/12/10 04:05:00;;;;;;;15.80;5.50;;;;;;;-0.62;100.00;100379.53;5054674;28;20549;-73
2022/12/10 04:07:28;;;;;;;17.97;7.20;;;;;;;-0.71;100.00;100379.06;5055140;28;20919;-72
2022/12/10 04:09:55;;;;;;;17.00;5.60;;;;;;;-0.60;100.00;100382.78;5054498;28;20461;-72
2022/12/10 04:12:21;;;;;;;16.23;7.17;;;;;;;-0.64;100.00;100386.94;5053704;28;20536;-73
2022/12/10 04:17:33;;;;;;;14.47;5.87;;;;;;;-0.47;100.00;100385.19;5053920;28;20437;-72
2022/12/10 04:20:00;;;;;;;19.50;6.30;;;;;;;-0.50;100.00;100383.00;5052769;28;20959;-73
2022/12/10 04:27:57;;;;;;;16.80;6.30;;;;;;;-0.49;100.00;100379.28;5041581;28;20481;-73
2022/12/10 04:30:24;;;;;;;21.67;7.47;;;;;;;-0.47;100.00;100382.53;5054551;28;20546;-72
2022/12/10 04:32:51;;;;;;;21.50;6.50;;;;;;;-0.47;100.00;100387.03;5053310;28;20972;-72
2022/12/10 04:35:17;;;;;;;19.73;6.73;;;;;;;-0.68;100.00;100383.91;5054575;28;20468;-72
2022/12/10 04:37:45;;;;;;;16.57;6.63;;;;;;;-0.63;100.00;100384.03;5102428;22;20496;-68
2022/12/10 04:40:12;;;;;;;15.70;5.20;;;;;;;-0.65;100.00;100388.78;5092740;28;20511;-69
2022/12/10 04:42:39;;;;;;;13.83;5.80;;;;;;;-0.51;100.00;100384.03;5083889;28;20623;-68
2022/12/10 04:45:06;;;;;;;18.40;6.40;;;;;;;-0.54;100.00;100381.84;5094531;28;20539;-68
2022/12/10 04:47:33;;;;;;;20.10;8.17;;;;;;;-0.41;100.00;100396.75;5094058;28;20575;-68
2022/12/10 04:49:59;;;;;;;13.07;6.20;;;;;;;-0.59;100.00;100397.69;5094176;28;20456;-68
2022/12/10 04:52:26;;;;;;;16.67;6.60;;;;;;;-0.59;100.00;100400.34;5085623;28;20547;-69
2022/12/10 04:54:54;;;;;;;14.80;5.97;;;;;;;-0.47;100.00;100389.72;5091258;28;21021;-69
2022/12/10 04:57:20;;;;;;;16.67;5.90;;;;;;;-0.44;100.00;100394.53;5076487;28;20457;-68
2022/12/10 04:59:48;;;;;;;18.50;8.10;;;;;;;-0.42;100.00;100395.94;5091496;28;20517;-69
2022/12/10 05:02:15;;;;;;;18.67;6.87;;;;;;;-0.51;100.00;100390.16;5088742;28;20539;-69
2022/12/10 05:04:41;;;;;;;23.30;7.20;;;;;;;-0.57;100.00;100400.94;5078135;28;20457;-69
2022/12/10 05:07:08;;;;;;;17.90;7.80;;;;;;;-0.51;100.00;100394.69;5074116;28;20491;-68
2022/12/10 05:09:34;;;;;;;14.43;6.90;;;;;;;-0.43;100.00;100399.66;5076299;28;20548;-68
2022/12/10 05:12:02;;;;;;;14.33;6.17;;;;;;;-0.38;100.00;100398.94;5074123;28;20447;-68
2022/12/10 05:14:29;;;;;;;19.37;6.53;;;;;;;-0.40;100.00;100398.34;5089984;28;20461;-69
2022/12/10 05:16:56;;;;;;;13.87;6.23;;;;;;;-0.30;100.00;100399.41;5076824;28;20461;-69
2022/12/10 05:19:23;;;;;;;15.53;6.33;;;;;;;-0.38;100.00;100393.63;5090797;28;20479;-70
2022/12/10 05:24:35;;;;;;;23.43;7.87;;;;;;;-0.38;100.00;100394.44;5082741;28;20461;-68
2022/12/10 05:27:03;;;;;;;20.83;8.50;;;;;;;-0.39;100.00;100400.00;5087724;28;20567;-68
2022/12/10 05:29:30;;;;;;;17.33;7.30;;;;;;;-0.59;100.00;100405.66;5092644;28;20492;-68
2022/12/10 05:31:57;;;;;;;21.67;8.87;;;;;;;-0.64;100.00;100402.88;5084593;28;20544;-68
2022/12/10 05:34:23;;;;;;;19.80;8.27;;;;;;;-0.64;100.00;100403.69;5085773;28;20958;-68
2022/12/10 05:36:50;;;;;;;26.37;9.80;;;;;;;-0.65;100.00;100403.94;5093939;28;20555;-69
2022/12/10 05:39:16;;;;;;;30.37;11.80;;;;;;;-0.64;100.00;100397.56;5093251;28;20479;-67
2022/12/10 05:41:45;;;;;;;20.73;9.87;;;;;;;-0.64;100.00;100406.34;5093170;28;20491;-70
2022/12/10 05:44:13;;;;;;;18.87;8.77;;;;;;;-0.48;100.00;100402.19;5078082;28;20457;-68
2022/12/10 05:46:40;;;;;;;22.47;10.33;;;;;;;-0.48;100.00;100412.84;5091612;28;20488;-68
2022/12/10 05:49:07;;;;;;;20.53;8.97;;;;;;;-0.53;100.00;100410.06;5092680;28;20547;-69
2022/12/10 05:51:37;;;;;;;15.47;7.60;;;;;;;-0.45;100.00;100416.88;5093457;28;20531;-69
2022/12/10 05:54:05;;;;;;;16.00;7.13;;;;;;;-0.51;100.00;100413.28;5089982;28;20548;-69
2022/12/10 05:56:32;;;;;;;21.80;9.30;;;;;;;-0.45;100.00;100401.72;5080591;28;20544;-69
2022/12/10 05:59:00;;;;;;;20.13;7.57;;;;;;;-0.64;100.00;100414.34;5082873;28;21033;-69
2022/12/10 06:01:31;;;;;;;16.67;7.60;;;;;;;-0.64;100.00;100418.84;5086058;28;20531;-69
2022/12/10 06:03:59;;;;;;;17.30;7.30;;;;;;;-0.54;100.00;100411.09;5085435;28;20962;-69
2022/12/10 06:06:28;;;;;;;22.10;8.50;;;;;;;-0.64;100.00;100408.22;5083209;28;20539;-70
2022/12/10 06:08:55;;;;;;;17.93;7.57;;;;;;;-0.58;100.00;100409.94;5092501;28;20547;-69
2022/12/10 06:11:22;;;;;;;17.60;7.47;;;;;;;-0.53;100.00;100412.72;5083818;28;20837;-68
2022/12/10 06:13:49;;;;;;;16.80;6.10;;;;;;;-0.53;100.00;100418.06;5091857;28;20467;-69
2022/12/10 06:16:15;;;;;;;21.37;8.43;;;;;;;-0.52;100.00;100417.00;5091819;28;20448;-69
2022/12/10 06:18:44;;;;;;;16.40;6.40;;;;;;;-0.43;100.00;100412.94;5078751;28;20547;-69
2022/12/10 06:21:13;;;;;;;14.93;6.07;;;;;;;-0.45;100.00;100417.69;5091242;28;20526;-70
2022/12/10 06:23:41;;;;;;;12.77;6.10;;;;;;;-0.54;100.00;100419.06;5083678;28;20542;-69
2022/12/10 06:26:08;;;;;;;15.87;6.73;;;;;;;-0.54;100.00;100419.88;5092248;28;20990;-69
2022/12/10 06:28:37;;;;;;;18.17;6.40;;;;;;;-0.52;100.00;100417.00;5079672;28;20578;-69
2022/12/10 06:31:03;;;;;;;15.03;6.27;;;;;;;-0.49;100.00;100423.69;5090108;28;20539;-69
2022/12/10 06:33:30;;;;;;;15.37;6.27;;;;;;;-0.38;100.00;100418.38;5087626;28;20540;-68
2022/12/10 06:35:58;;;;;;;17.27;7.10;;;;;;;-0.46;100.00;100425.91;5092003;28;20499;-69
2022/12/10 06:38:25;;;;;;;15.47;6.50;;;;;;;-0.47;100.00;100427.75;5085501;28;20842;-69
2022/12/10 06:40:52;;;;;;;15.30;5.90;;;;;;;-0.39;100.00;100426.59;5088204;28;20460;-69
2022/12/10 06:43:19;;;;;;;19.07;7.07;;;;;;;-0.48;100.00;100438.63;5090023;28;20543;-68
2022/12/10 06:45:46;;;;;;;11.10;5.33;;;;;;;-0.38;100.00;100433.53;5093134;28;20468;-69
2022/12/10 06:48:12;;;;;;;12.83;4.87;;;;;;;-0.36;100.00;100434.91;5088039;28;20489;-69
2022/12/10 06:50:39;;;;;;;16.57;6.87;;;;;;;-0.50;100.00;100433.53;5083763;28;20831;-68
2022/12/10 06:53:07;;;;;;;14.30;4.73;;;;;;;-0.44;100.00;100435.28;5086721;28;20456;-69
2022/12/10 06:55:33;;;;;;;17.00;6.00;;;;;;;-0.41;100.00;100442.78;5092308;28;20457;-70
2022/12/10 06:58:00;;;;;;;13.40;6.27;;;;;;;-0.46;100.00;100437.34;5085304;28;20564;-69
2022/12/10 07:00:26;;;;;;;13.27;6.13;;;;;;;-0.44;100.00;100445.94;5095196;28;20451;-69
2022/12/10 07:02:53;;;;;;;18.20;7.10;;;;;;;-0.46;100.00;100448.00;5089903;28;21020;-72
2022/12/10 07:05:20;;;;;;;15.60;5.90;;;;;;;-0.47;100.00;100448.22;5091810;28;20539;-69
2022/12/10 07:07:47;;;;;;;17.33;7.60;;;;;;;-0.47;100.00;100448.22;5076230;28;20493;-69
2022/12/10 07:10:15;;;;;;;12.77;5.63;;;;;;;-0.41;100.00;100457.94;5078029;28;20858;-69
2022/12/10 07:12:41;;;;;;;12.10;5.27;;;;;;;-0.37;100.00;100449.25;5086473;28;20499;-68
2022/12/10 07:15:09;;;;;;;12.57;6.10;;;;;;;-0.31;99.29;100458.16;5086996;28;20467;-68
2022/12/10 07:17:36;;;;;;;17.73;7.57;;;;;;;-0.32;98.91;100460.00;5093598;28;20880;-68
2022/12/10 07:20:03;;;;;;;12.13;6.23;;;;;;;-0.34;98.82;100461.31;5096389;28;20959;-69
2022/12/10 07:22:29;;;;;;;19.27;8.40;;;;;;;-0.40;99.07;100457.72;5080262;28;20971;-68
2022/12/10 07:24:56;;;;;;;14.20;6.00;;;;;;;-0.40;98.56;100459.53;5092965;28;20543;-68
2022/12/10 07:27:24;;;;;;;15.53;6.27;;;;;;;-0.40;98.64;100457.72;5075972;28;21074;-68
2022/12/10 07:29:51;;;;;;;13.00;5.50;;;;;;;-0.33;97.95;100463.72;5076007;28;20548;-69
2022/12/10 07:32:18;;;;;;;12.70;5.47;;;;;;;-0.40;98.21;100468.38;5076105;28;20441;-68
2022/12/10 07:34:44;;;;;;;14.50;7.10;;;;;;;-0.41;98.52;100465.91;5078905;28;20547;-68
2022/12/10 07:37:11;;;;;;;13.47;5.60;;;;;;;-0.33;97.81;100473.56;5082589;28;20489;-66
2022/12/10 07:39:38;;;;;;;13.17;6.30;;;;;;;-0.38;98.30;100478.78;5076061;28;20449;-66
2022/12/10 07:42:04;;;;;;;18.87;6.70;;;;;;;-0.31;97.97;100472.31;5091255;28;20541;-67
2022/12/10 07:44:32;;;;;;;13.93;5.47;;;;;;;-0.23;97.58;100481.75;5096292;28;20459;-66
2022/12/10 07:46:59;;;;;;;15.23;6.10;;;;;;;-0.32;98.46;100475.97;5094172;28;20567;-68
2022/12/10 07:49:26;;;;;;;11.60;5.57;;;;;;;-0.25;99.26;100475.88;5096172;28;20580;-67
2022/12/10 07:51:53;;;;;;;12.70;5.97;;;;;;;-0.22;99.07;100478.09;5092239;28;20540;-68
2022/12/10 07:54:19;;;;;;;14.10;5.47;;;;;;;-0.22;98.29;100485.22;5095985;28;20440;-67
2022/12/10 07:56:46;;;;;;;12.67;6.00;;;;;;;-0.10;98.07;100486.03;5083437;28;20594;-68
2022/12/10 07:59:13;;;;;;;13.70;4.60;;;;;;;-0.13;96.87;100489.19;5075360;28;20532;-68
2022/12/10 08:01:41;;;;;;;13.80;5.67;;;;;;;-0.15;96.05;100486.72;5081573;28;20493;-67
2022/12/10 08:04:08;;;;;;;17.30;5.77;;;;;;;-0.17;96.74;100486.19;5077060;28;20540;-68
2022/12/10 08:06:34;;;;;;;13.90;5.90;;;;;;;-0.15;97.34;100488.59;5089619;28;20504;-67
2022/12/10 08:09:01;;;;;;;16.90;5.07;;;;;;;-0.18;96.84;100489.84;5093798;28;21008;-67
2022/12/10 08:11:28;;;;;;;13.90;5.23;;;;;;;-0.14;97.26;100488.34;5086654;28;20492;-67
2022/12/10 08:13:56;;;;;;;13.33;5.40;;;;;;;-0.11;96.77;100495.88;5083008;28;20461;-69
2022/12/10 08:16:25;;;;;;;14.70;4.97;;;;;;;-0.13;96.40;100499.84;5077514;28;20544;-67
2022/12/10 08:18:53;;;;;;;12.70;5.40;;;;;;;-0.11;96.54;100508.38;5076388;28;20532;-68
2022/12/10 08:21:23;;;;;;;10.23;4.47;;;;;;;-0.07;95.86;100509.53;5091429;28;20489;-67
2022/12/10 08:23:49;;;;;;;15.30;5.07;;;;;;;-0.04;95.78;100506.41;5091018;28;20552;-68
2022/12/10 08:26:18;;;;;;;9.97;5.10;;;;;;;-0.03;95.21;100502.72;5091552;28;20543;-67
2022/12/10 08:28:45;;;;;;;15.10;6.20;;;;;;;-0.01;94.71;100508.59;5094969;28;20486;-68
2022/12/10 08:31:13;;;;;;;11.73;5.17;;;;;;;-0.03;94.63;100510.69;5089909;28;20547;-68
2022/12/10 08:33:41;;;;;;;9.50;4.30;;;;;;;-0.04;94.93;100511.75;5075708;28;20464;-68
2022/12/10 08:36:11;;;;;;;12.63;4.63;;;;;;;-0.01;95.51;100508.59;5080092;28;20547;-68
2022/12/10 08:38:38;;;;;;;14.83;5.70;;;;;;;0.07;95.86;100507.44;5094316;28;20465;-69
2022/12/10 08:41:09;;;;;;;12.33;5.20;;;;;;;0.09;96.30;100508.84;5095066;28;20971;-69
2022/12/10 08:43:36;;;;;;;14.17;5.70;;;;;;;0.21;96.33;100506.94;5094890;28;20487;-68
2022/12/10 08:46:03;;;;;;;10.97;5.00;;;;;;;0.25;96.04;100501.97;5094740;28;20523;-67
2022/12/10 08:48:30;;;;;;;14.53;5.80;;;;;;;0.25;96.09;100507.28;5094059;28;20910;-69
2022/12/10 08:50:57;;;;;;;12.23;5.40;;;;;;;0.30;95.98;100510.06;5085585;28;20528;-67
2022/12/10 08:53:25;;;;;;;13.00;6.00;;;;;;;0.40;95.64;100520.94;5088055;28;20532;-68
2022/12/10 08:55:52;;;;;;;16.67;5.50;;;;;;;0.36;95.53;100513.66;5083420;28;20510;-67
2022/12/10 08:58:19;;;;;;;12.90;6.13;;;;;;;0.47;94.12;100520.78;5094670;28;20499;-67
2022/12/10 09:00:46;;;;;;;12.03;5.73;;;;;;;0.47;93.55;100520.78;5087010;28;20476;-67
2022/12/10 09:03:13;;;;;;;10.50;4.90;;;;;;;0.41;92.63;100516.44;5080142;28;20443;-68
2022/12/10 09:05:39;;;;;;;15.67;6.40;;;;;;;0.30;92.25;100519.91;5086720;28;21011;-69
2022/12/10 09:08:06;;;;;;;10.33;4.53;;;;;;;0.26;91.54;100516.91;5076384;28;20483;-70
2022/12/10 09:10:36;;;;;;;10.17;4.83;;;;;;;0.32;92.29;100523.16;5092074;28;20870;-67
2022/12/10 09:13:02;;;;;;;12.97;6.27;;;;;;;0.31;92.14;100518.84;5090526;28;20446;-66
2022/12/10 09:15:29;;;;;;;12.90;5.30;;;;;;;0.39;91.64;100523.81;5085474;28;20532;-67
2022/12/10 09:17:55;;;;;;;12.73;5.30;;;;;;;0.33;91.46;100525.56;5074130;28;20453;-68
2022/12/10 09:20:22;;;;;;;13.77;5.80;;;;;;;0.37;92.08;100531.25;5078285;28;20533;-67
2022/12/10 09:22:49;;;;;;;13.47;5.40;;;;;;;0.32;91.06;100528.50;5074040;28;20792;-67
2022/12/10 09:25:16;;;;;;;11.70;5.73;;;;;;;0.31;91.10;100525.03;5088059;28;20441;-67
2022/12/10 09:27:45;;;;;;;17.50;6.03;;;;;;;0.37;90.88;100528.59;5094128;28;20484;-67
2022/12/10 09:30:12;;;;;;;18.33;5.63;;;;;;;0.43;90.63;100532.97;5089208;28;20528;-68
2022/12/10 09:32:39;;;;;;;10.53;4.50;;;;;;;0.41;90.82;100533.22;5090269;28;20563;-68
2022/12/10 09:35:07;;;;;;;11.10;5.20;;;;;;;0.43;90.29;100528.44;5094001;28;20483;-68
2022/12/10 09:37:33;;;;;;;11.93;5.23;;;;;;;0.32;88.71;100523.16;5091713;28;20476;-68
2022/12/10 09:40:00;;;;;;;15.83;6.43;;;;;;;0.32;89.29;100523.16;5091389;28;20468;-68
2022/12/10 09:42:39;;;;;;;15.23;5.60;;;;;;;0.39;89.95;100526.50;5073400;28;20862;-68
2022/12/10 09:45:16;;;;;;;12.57;6.13;;;;;;;0.28;88.03;100530.00;5072224;28;20513;-69
2022/12/10 09:47:53;;;;;;;9.57;5.20;;;;;;;0.32;88.38;100520.50;5087722;28;20495;-67
2022/12/10 09:50:27;;;;;;;12.57;5.30;;;;;;;0.44;89.23;100531.91;5092644;28;20551;-69
2022/12/10 09:52:55;;;;;;;11.80;5.90;;;;;;;0.48;89.87;100528.53;5093650;28;20505;-68
2022/12/10 09:55:28;;;;;;;13.50;6.27;;;;;;;0.57;89.91;100526.31;5091758;28;20460;-68
2022/12/10 09:57:55;;;;;;;13.03;5.70;;;;;;;0.64;90.53;100527.00;5078016;28;20482;-69
2022/12/10 10:00:30;;;;;;;16.83;6.33;;;;;;;0.59;88.71;100524.25;5077654;28;20540;-68
2022/12/10 10:02:59;;;;;;;13.50;6.17;;;;;;;0.45;89.38;100525.56;5080323;28;20515;-68
2022/12/10 10:05:29;;;;;;;14.67;6.53;;;;;;;0.46;88.64;100524.50;5093377;28;20507;-68
2022/12/10 10:07:58;;;;;;;14.27;5.90;;;;;;;0.53;89.40;100525.16;5092265;28;21011;-68
2022/12/10 10:10:28;;;;;;;12.30;5.47;;;;;;;0.56;88.54;100524.72;5091638;28;20463;-68
2022/12/10 10:12:58;;;;;;;18.30;6.47;;;;;;;0.33;88.79;100532.78;5093454;28;20441;-68
2022/12/10 10:15:31;;;;;;;16.77;6.37;;;;;;;0.44;88.79;100523.91;5087070;28;20457;-69
2022/12/10 10:18:02;;;;;;;12.50;6.40;;;;;;;0.48;88.40;100530.41;5076069;28;20550;-68
2022/12/10 10:20:29;;;;;;;16.20;7.13;;;;;;;0.55;89.25;100536.41;5086552;28;21016;-69
2022/12/10 10:22:58;;;;;;;20.00;7.13;;;;;;;0.63;89.53;100530.72;5082074;28;20921;-68
2022/12/10 10:25:25;;;;;;;14.67;6.83;;;;;;;0.64;88.80;100537.66;5073212;28;20536;-68
2022/12/10 10:27:51;;;;;;;16.40;6.53;;;;;;;0.67;89.75;100528.41;5089450;28;20504;-69
2022/12/10 10:30:21;;;;;;;10.40;5.40;;;;;;;0.76;89.64;100532.31;5081950;28;20448;-68
2022/12/10 10:32:52;;;;;;;17.10;8.30;;;;;;;0.69;88.52;100529.78;5093121;28;20527;-69
2022/12/10 10:35:25;;;;;;;15.00;5.90;;;;;;;0.53;88.55;100525.16;5089524;28;20539;-71
2022/12/10 10:37:57;;;;;;;15.27;6.17;;;;;;;0.60;88.34;100525.06;5086077;28;20491;-72
2022/12/10 10:40:26;;;;;;;16.50;6.67;;;;;;;0.59;88.88;100524.25;5072948;28;20422;-68
2022/12/10 10:42:56;;;;;;;13.37;6.10;;;;;;;0.66;88.51;100516.91;5074990;28;20497;-69
2022/12/10 10:45:39;;;;;;;14.30;6.80;;;;;;;0.70;88.23;100512.72;5105941;22;20501;-71
2022/12/10 10:48:12;;;;;;;16.60;6.63;;;;;;;0.67;88.69;100510.56;5070009;28;20473;-72
2022/12/10 10:50:41;;;;;;;13.60;7.20;;;;;;;0.78;88.98;100516.06;5068475;28;20457;-71
2022/12/10 10:53:30;;;;;;;12.27;5.53;;;;;;;0.84;89.27;100512.44;5072592;28;20881;-71
2022/12/10 10:56:00;;;;;;;13.37;6.07;;;;;;;0.86;89.37;100513.03;5071988;28;20473;-71
2022/12/10 10:58:27;;;;;;;14.33;5.90;;;;;;;0.80;90.68;100514.78;5073003;28;20898;-71
2022/12/10 11:01:00;;;;;;;15.30;7.20;;;;;;;0.64;88.23;100503.03;5071641;28;20481;-71
2022/12/10 11:03:29;;;;;;;16.77;6.67;;;;;;;0.69;89.12;100511.09;5072346;28;20451;-72
2022/12/10 11:05:58;;;;;;;13.60;5.43;;;;;;;0.70;90.72;100507.38;5068930;28;20508;-72
2022/12/10 11:08:27;;;;;;;13.73;6.70;;;;;;;0.77;90.20;100501.94;5068605;28;20481;-71
2022/12/10 11:11:01;;;;;;;19.97;8.03;;;;;;;0.74;89.60;100500.53;5072233;28;20486;-73
2022/12/10 11:13:30;;;;;;;15.33;7.07;;;;;;;0.83;89.63;100503.63;5072771;28;20448;-71
2022/12/10 11:15:59;;;;;;;15.10;7.70;;;;;;;0.93;89.83;100495.00;5072169;28;20538;-72
2022/12/10 11:18:32;;;;;;;13.90;7.30;;;;;;;0.98;88.57;100497.78;5070096;28;20536;-72
2022/12/10 11:21:02;;;;;;;15.00;7.43;;;;;;;0.98;88.87;100501.25;5061145;28;20541;-71
2022/12/10 11:23:30;;;;;;;15.90;7.43;;;;;;;1.03;89.06;100495.22;5058142;28;20469;-71
2022/12/10 11:26:09;;;;;;;15.00;7.50;;;;;;;1.01;87.43;100499.97;5072987;28;20477;-72
2022/12/10 11:28:48;;;;;;;13.20;6.33;;;;;;;1.03;87.42;100491.75;5074575;28;20563;-71
2022/12/10 11:31:36;;;;;;;16.17;7.80;;;;;;;0.97;87.42;100496.16;5075181;28;20433;-71